Skip Navigation LinksHome page > Weather > Current weather Skip Navigation Links

Current Weather

Sdr Stroemfjord, Greenland

For information only: do not use for flight planning or navigation.
Latest weather
Observation time Monday, November 29, 2021 4:50 PM AST
Local time Monday, November 29, 2021 5:50 PM AST
Flight conditions Conditions unknown
Winds
Wind direction Northeast (40°)
Wind speed 3 mph
Present weather light rain
Sky condition
Ceiling 2,400 ft. overcast
Cloud layer scattered clouds 2,000 ft.
Cloud layer overcast 2,400 ft.
Temperature 34°F
Dewpoint 34°F
Altimeter 29.41 in.Hg
Derived measurements
Relative humidity 100%
Wind chill 31°F
Density altitude -842 ft.
Remarks
Fully automated report.
METAR BGSF 292050Z AUTO 04003KT 9999NDV -RA SCT020/// OVC024/// 01/01 Q0996

Settings

Location code

InnerDrive.Weather 4.0.6770.0 Release CLR 4.0.30319.42000
Copyright ©2018 Inner Drive Technology. All rights reserved. Portions Copyright ©1986-2018 David Braverman.

Find weather

Site navigation


Skip Navigation Links

Place info

Page info

PayPal - The safer, easier way to pay online!

Return home.

Copyright ©2021 Inner Drive Technology. Purveyors of fine, hand-crafted computer software. Page printed 2021-11-29T21:50:56 UTC.